sensor_id;sensor_type;location;lat;lon;timestamp;P1;durP1;ratioP1;P2;durP2;ratioP2
38220;SDS011;24023;51.280;7.148;2022-08-18T00:00:13;31.5;;;28.5;;
38220;SDS011;24023;51.280;7.148;2022-08-18T00:05:06;31.5;;;28.5;;
38220;SDS011;24023;51.280;7.148;2022-08-18T00:10:07;30.5;;;27.5;;
38220;SDS011;24023;51.280;7.148;2022-08-18T00:15:08;30.5;;;27.5;;
38220;SDS011;24023;51.280;7.148;2022-08-18T00:20:09;30.6;;;27.6;;
38220;SDS011;24023;51.280;7.148;2022-08-18T00:25:09;30.6;;;27.6;;
38220;SDS011;24023;51.280;7.148;2022-08-18T00:30:10;29.4;;;26.7;;
38220;SDS011;24023;51.280;7.148;2022-08-18T00:35:07;29.4;;;26.7;;
38220;SDS011;24023;51.280;7.148;2022-08-18T00:40:10;29.4;;;26.7;;
38220;SDS011;24023;51.280;7.148;2022-08-18T00:45:11;30.8;;;27.9;;
38220;SDS011;24023;51.280;7.148;2022-08-18T00:50:08;30.8;;;27.9;;
38220;SDS011;24023;51.280;7.148;2022-08-18T00:55:06;30.8;;;27.9;;
38220;SDS011;24023;51.280;7.148;2022-08-18T01:00:12;29.5;;;26.7;;
38220;SDS011;24023;51.280;7.148;2022-08-18T01:05:08;29.5;;;26.7;;
38220;SDS011;24023;51.280;7.148;2022-08-18T01:10:07;30.2;;;27.3;;
38220;SDS011;24023;51.280;7.148;2022-08-18T01:15:08;36.5;;;32.7;;
38220;SDS011;24023;51.280;7.148;2022-08-18T01:26:10;31.8;;;28.7;;
38220;SDS011;24023;51.280;7.148;2022-08-18T01:30:11;31.8;;;28.7;;
38220;SDS011;24023;51.280;7.148;2022-08-18T01:35:08;30.0;;;26.8;;
38220;SDS011;24023;51.280;7.148;2022-08-18T01:40:09;30.0;;;26.8;;
38220;SDS011;24023;51.280;7.148;2022-08-18T01:45:09;33.5;;;30.1;;
38220;SDS011;24023;51.280;7.148;2022-08-18T01:50:08;33.5;;;30.1;;
38220;SDS011;24023;51.280;7.148;2022-08-18T01:55:07;33.5;;;30.1;;
38220;SDS011;24023;51.280;7.148;2022-08-18T02:00:12;33.4;;;30.1;;
38220;SDS011;24023;51.280;7.148;2022-08-18T02:05:08;33.4;;;30.1;;
38220;SDS011;24023;51.280;7.148;2022-08-18T02:10:09;34.7;;;31.3;;
38220;SDS011;24023;51.280;7.148;2022-08-18T02:15:07;34.7;;;31.3;;
38220;SDS011;24023;51.280;7.148;2022-08-18T02:20:09;34.7;;;31.3;;
38220;SDS011;24023;51.280;7.148;2022-08-18T02:25:07;34.9;;;31.4;;
38220;SDS011;24023;51.280;7.148;2022-08-18T02:30:10;34.9;;;31.4;;
38220;SDS011;24023;51.280;7.148;2022-08-18T02:35:06;35.2;;;31.8;;
38220;SDS011;24023;51.280;7.148;2022-08-18T02:40:09;35.2;;;31.8;;
38220;SDS011;24023;51.280;7.148;2022-08-18T02:45:10;38.3;;;34.4;;
38220;SDS011;24023;51.280;7.148;2022-08-18T02:50:08;38.3;;;34.4;;
38220;SDS011;24023;51.280;7.148;2022-08-18T02:55:07;49.7;;;44.3;;
38220;SDS011;24023;51.280;7.148;2022-08-18T03:00:13;49.7;;;44.3;;
38220;SDS011;24023;51.280;7.148;2022-08-18T03:05:08;49.7;;;44.3;;
38220;SDS011;24023;51.280;7.148;2022-08-18T03:10:07;48.3;;;43.1;;
38220;SDS011;24023;51.280;7.148;2022-08-18T03:15:07;43.6;;;39.1;;
38220;SDS011;24023;51.280;7.148;2022-08-18T03:20:07;43.6;;;39.1;;
38220;SDS011;24023;51.280;7.148;2022-08-18T03:25:07;39.6;;;35.5;;
38220;SDS011;24023;51.280;7.148;2022-08-18T03:30:08;39.6;;;35.5;;
38220;SDS011;24023;51.280;7.148;2022-08-18T03:35:06;36.3;;;32.5;;
38220;SDS011;24023;51.280;7.148;2022-08-18T03:40:09;36.3;;;32.5;;
38220;SDS011;24023;51.280;7.148;2022-08-18T03:45:09;34.3;;;30.7;;
38220;SDS011;24023;51.280;7.148;2022-08-18T03:50:07;34.3;;;30.7;;
38220;SDS011;24023;51.280;7.148;2022-08-18T03:55:06;32.2;;;29.0;;
38220;SDS011;24023;51.280;7.148;2022-08-18T04:00:12;32.2;;;29.0;;
38220;SDS011;24023;51.280;7.148;2022-08-18T04:05:06;32.2;;;29.0;;
38220;SDS011;24023;51.280;7.148;2022-08-18T04:10:07;32.7;;;29.4;;
38220;SDS011;24023;51.280;7.148;2022-08-18T04:15:08;32.7;;;29.4;;
38220;SDS011;24023;51.280;7.148;2022-08-18T04:20:10;32.6;;;29.4;;
38220;SDS011;24023;51.280;7.148;2022-08-18T04:25:08;32.6;;;29.4;;
38220;SDS011;24023;51.280;7.148;2022-08-18T04:30:10;32.6;;;29.4;;
38220;SDS011;24023;51.280;7.148;2022-08-18T04:35:06;38.0;;;34.0;;
38220;SDS011;24023;51.280;7.148;2022-08-18T04:40:08;38.0;;;34.0;;
38220;SDS011;24023;51.280;7.148;2022-08-18T04:45:10;38.0;;;34.0;;
38220;SDS011;24023;51.280;7.148;2022-08-18T04:50:08;38.5;;;34.4;;
38220;SDS011;24023;51.280;7.148;2022-08-18T04:55:06;38.5;;;34.4;;
38220;SDS011;24023;51.280;7.148;2022-08-18T05:00:13;37.1;;;33.1;;
38220;SDS011;24023;51.280;7.148;2022-08-18T05:05:06;33.4;;;29.8;;
38220;SDS011;24023;51.280;7.148;2022-08-18T05:10:08;33.4;;;29.8;;
38220;SDS011;24023;51.280;7.148;2022-08-18T05:15:08;33.4;;;29.8;;
38220;SDS011;24023;51.280;7.148;2022-08-18T05:20:07;33.7;;;29.5;;
38220;SDS011;24023;51.280;7.148;2022-08-18T05:25:07;32.1;;;27.4;;
38220;SDS011;24023;51.280;7.148;2022-08-18T05:30:09;32.1;;;27.4;;
38220;SDS011;24023;51.280;7.148;2022-08-18T05:35:07;32.1;;;27.4;;
38220;SDS011;24023;51.280;7.148;2022-08-18T05:40:07;31.5;;;27.9;;
38220;SDS011;24023;51.280;7.148;2022-08-18T05:45:10;31.5;;;27.9;;
38220;SDS011;24023;51.280;7.148;2022-08-18T05:50:09;30.1;;;26.5;;
38220;SDS011;24023;51.280;7.148;2022-08-18T06:00:11;36.5;;;28.9;;
38220;SDS011;24023;51.280;7.148;2022-08-18T06:05:07;36.5;;;28.9;;
38220;SDS011;24023;51.280;7.148;2022-08-18T06:10:08;37.2;;;28.8;;
38220;SDS011;24023;51.280;7.148;2022-08-18T06:15:09;37.2;;;28.8;;
38220;SDS011;24023;51.280;7.148;2022-08-18T06:20:11;38.3;;;29.6;;
38220;SDS011;24023;51.280;7.148;2022-08-18T06:25:09;44.9;;;32.4;;
38220;SDS011;24023;51.280;7.148;2022-08-18T06:30:11;44.9;;;32.4;;
38220;SDS011;24023;51.280;7.148;2022-08-18T06:35:10;44.9;;;32.4;;
38220;SDS011;24023;51.280;7.148;2022-08-18T06:40:08;45.1;;;32.2;;
38220;SDS011;24023;51.280;7.148;2022-08-18T06:45:10;42.7;;;32.4;;
38220;SDS011;24023;51.280;7.148;2022-08-18T06:50:10;42.7;;;32.4;;
38220;SDS011;24023;51.280;7.148;2022-08-18T06:55:07;42.7;;;32.4;;
38220;SDS011;24023;51.280;7.148;2022-08-18T07:00:20;43.9;;;33.1;;
38220;SDS011;24023;51.280;7.148;2022-08-18T07:05:07;48.1;;;35.3;;
38220;SDS011;24023;51.280;7.148;2022-08-18T07:15:07;48.1;;;35.3;;
38220;SDS011;24023;51.280;7.148;2022-08-18T07:20:09;48.4;;;36.4;;
38220;SDS011;24023;51.280;7.148;2022-08-18T07:25:06;43.8;;;34.2;;
38220;SDS011;24023;51.280;7.148;2022-08-18T07:30:10;43.8;;;34.2;;
38220;SDS011;24023;51.280;7.148;2022-08-18T07:35:07;43.8;;;34.2;;
38220;SDS011;24023;51.280;7.148;2022-08-18T07:40:11;44.4;;;35.0;;
38220;SDS011;24023;51.280;7.148;2022-08-18T07:45:11;37.5;;;31.9;;
38220;SDS011;24023;51.280;7.148;2022-08-18T07:50:07;37.5;;;31.9;;
38220;SDS011;24023;51.280;7.148;2022-08-18T07:55:09;35.9;;;31.4;;
38220;SDS011;24023;51.280;7.148;2022-08-18T08:00:17;35.9;;;31.4;;
38220;SDS011;24023;51.280;7.148;2022-08-18T08:05:09;35.9;;;31.4;;
38220;SDS011;24023;51.280;7.148;2022-08-18T08:10:15;35.6;;;30.2;;
38220;SDS011;24023;51.280;7.148;2022-08-18T08:15:10;33.2;;;28.6;;
38220;SDS011;24023;51.280;7.148;2022-08-18T08:20:11;33.2;;;28.6;;
38220;SDS011;24023;51.280;7.148;2022-08-18T08:25:08;33.2;;;28.6;;
38220;SDS011;24023;51.280;7.148;2022-08-18T08:30:10;32.6;;;27.8;;
38220;SDS011;24023;51.280;7.148;2022-08-18T08:35:07;29.8;;;26.5;;
38220;SDS011;24023;51.280;7.148;2022-08-18T08:40:11;29.8;;;26.5;;
38220;SDS011;24023;51.280;7.148;2022-08-18T08:45:12;34.8;;;29.4;;
38220;SDS011;24023;51.280;7.148;2022-08-18T08:50:08;34.8;;;29.4;;
38220;SDS011;24023;51.280;7.148;2022-08-18T08:55:08;31.8;;;28.3;;
38220;SDS011;24023;51.280;7.148;2022-08-18T09:00:11;31.8;;;28.3;;
38220;SDS011;24023;51.280;7.148;2022-08-18T09:05:07;34.8;;;30.6;;
38220;SDS011;24023;51.280;7.148;2022-08-18T09:10:16;34.8;;;30.6;;
38220;SDS011;24023;51.280;7.148;2022-08-18T09:15:14;33.7;;;28.2;;
38220;SDS011;24023;51.280;7.148;2022-08-18T09:20:20;33.7;;;28.2;;
38220;SDS011;24023;51.280;7.148;2022-08-18T09:25:08;32.0;;;28.5;;
38220;SDS011;24023;51.280;7.148;2022-08-18T09:30:35;32.0;;;28.5;;
38220;SDS011;24023;51.280;7.148;2022-08-18T09:35:10;34.5;;;28.5;;
38220;SDS011;24023;51.280;7.148;2022-08-18T09:45:10;31.3;;;26.7;;
38220;SDS011;24023;51.280;7.148;2022-08-18T09:51:30;31.3;;;26.7;;
38220;SDS011;24023;51.280;7.148;2022-08-18T09:55:07;31.3;;;26.7;;
38220;SDS011;24023;51.280;7.148;2022-08-18T10:00:18;31.6;;;26.5;;
38220;SDS011;24023;51.280;7.148;2022-08-18T10:05:24;35.0;;;29.9;;
38220;SDS011;24023;51.280;7.148;2022-08-18T10:10:12;35.0;;;29.9;;
38220;SDS011;24023;51.280;7.148;2022-08-18T10:15:12;35.0;;;29.9;;
38220;SDS011;24023;51.280;7.148;2022-08-18T10:20:13;33.7;;;28.4;;
38220;SDS011;24023;51.280;7.148;2022-08-18T10:25:09;33.7;;;28.4;;
38220;SDS011;24023;51.280;7.148;2022-08-18T10:30:09;33.8;;;29.2;;
38220;SDS011;24023;51.280;7.148;2022-08-18T10:35:54;32.2;;;28.0;;
38220;SDS011;24023;51.280;7.148;2022-08-18T10:40:13;32.2;;;28.0;;
38220;SDS011;24023;51.280;7.148;2022-08-18T10:45:11;32.2;;;28.0;;
38220;SDS011;24023;51.280;7.148;2022-08-18T10:50:11;33.6;;;29.4;;
38220;SDS011;24023;51.280;7.148;2022-08-18T10:55:10;32.8;;;27.4;;
38220;SDS011;24023;51.280;7.148;2022-08-18T11:00:13;32.8;;;27.4;;
38220;SDS011;24023;51.280;7.148;2022-08-18T11:05:07;32.8;;;27.4;;
38220;SDS011;24023;51.280;7.148;2022-08-18T11:10:14;32.8;;;27.4;;
38220;SDS011;24023;51.280;7.148;2022-08-18T11:15:09;32.1;;;27.9;;
38220;SDS011;24023;51.280;7.148;2022-08-18T11:20:08;32.1;;;27.9;;
38220;SDS011;24023;51.280;7.148;2022-08-18T11:25:16;32.1;;;27.9;;
38220;SDS011;24023;51.280;7.148;2022-08-18T11:30:09;32.1;;;27.0;;
38220;SDS011;24023;51.280;7.148;2022-08-18T11:35:10;32.1;;;27.0;;
38220;SDS011;24023;51.280;7.148;2022-08-18T11:40:09;32.1;;;27.0;;
38220;SDS011;24023;51.280;7.148;2022-08-18T11:45:12;30.8;;;27.1;;
38220;SDS011;24023;51.280;7.148;2022-08-18T11:50:08;30.8;;;27.1;;
38220;SDS011;24023;51.280;7.148;2022-08-18T11:55:06;32.8;;;28.1;;
38220;SDS011;24023;51.280;7.148;2022-08-18T12:05:07;32.8;;;28.1;;
38220;SDS011;24023;51.280;7.148;2022-08-18T12:10:12;32.6;;;27.3;;
38220;SDS011;24023;51.280;7.148;2022-08-18T15:05:06;15.2;;;13.9;;
38220;SDS011;24023;51.280;7.148;2022-08-18T15:10:10;15.2;;;13.9;;
38220;SDS011;24023;51.280;7.148;2022-08-18T15:15:08;15.2;;;13.9;;
38220;SDS011;24023;51.280;7.148;2022-08-18T15:20:09;14.1;;;12.9;;
38220;SDS011;24023;51.280;7.148;2022-08-18T15:26:11;14.1;;;12.9;;
38220;SDS011;24023;51.280;7.148;2022-08-18T15:30:10;13.2;;;12.0;;
38220;SDS011;24023;51.280;7.148;2022-08-18T15:35:07;13.2;;;12.0;;
38220;SDS011;24023;51.280;7.148;2022-08-18T15:40:11;13.1;;;11.9;;
38220;SDS011;24023;51.280;7.148;2022-08-18T15:45:09;13.1;;;11.9;;
38220;SDS011;24023;51.280;7.148;2022-08-18T15:50:08;11.9;;;10.9;;
38220;SDS011;24023;51.280;7.148;2022-08-18T15:55:06;11.9;;;10.9;;
38220;SDS011;24023;51.280;7.148;2022-08-18T16:00:12;11.9;;;10.9;;
38220;SDS011;24023;51.280;7.148;2022-08-18T16:05:07;11.8;;;10.7;;
38220;SDS011;24023;51.280;7.148;2022-08-18T16:10:08;11.8;;;10.7;;
38220;SDS011;24023;51.280;7.148;2022-08-18T16:15:08;9.7;;;8.8;;
38220;SDS011;24023;51.280;7.148;2022-08-18T16:20:08;9.7;;;8.8;;
38220;SDS011;24023;51.280;7.148;2022-08-18T16:25:07;9.7;;;8.8;;
38220;SDS011;24023;51.280;7.148;2022-08-18T16:30:10;9.7;;;8.8;;
38220;SDS011;24023;51.280;7.148;2022-08-18T16:35:06;8.4;;;7.7;;
38220;SDS011;24023;51.280;7.148;2022-08-18T16:40:07;8.4;;;7.7;;
38220;SDS011;24023;51.280;7.148;2022-08-18T16:45:10;8.4;;;7.7;;
38220;SDS011;24023;51.280;7.148;2022-08-18T16:50:09;8.2;;;7.5;;
38220;SDS011;24023;51.280;7.148;2022-08-18T16:55:07;8.2;;;7.5;;
38220;SDS011;24023;51.280;7.148;2022-08-18T17:05:06;7.6;;;7.0;;
38220;SDS011;24023;51.280;7.148;2022-08-18T17:10:07;7.6;;;7.0;;
38220;SDS011;24023;51.280;7.148;2022-08-18T17:15:07;6.1;;;5.5;;
38220;SDS011;24023;51.280;7.148;2022-08-18T17:20:08;6.1;;;5.5;;
38220;SDS011;24023;51.280;7.148;2022-08-18T17:25:06;5.8;;;5.2;;
38220;SDS011;24023;51.280;7.148;2022-08-18T17:30:11;5.8;;;5.2;;
38220;SDS011;24023;51.280;7.148;2022-08-18T17:35:08;5.8;;;5.2;;
38220;SDS011;24023;51.280;7.148;2022-08-18T17:40:11;5.5;;;5.0;;
38220;SDS011;24023;51.280;7.148;2022-08-18T17:45:10;5.5;;;5.0;;
38220;SDS011;24023;51.280;7.148;2022-08-18T17:55:08;5.8;;;5.3;;
38220;SDS011;24023;51.280;7.148;2022-08-18T18:00:13;5.8;;;5.3;;
38220;SDS011;24023;51.280;7.148;2022-08-18T18:05:08;5.2;;;4.8;;
38220;SDS011;24023;51.280;7.148;2022-08-18T18:10:09;5.2;;;4.8;;
38220;SDS011;24023;51.280;7.148;2022-08-18T18:15:08;5.2;;;4.8;;
38220;SDS011;24023;51.280;7.148;2022-08-18T18:20:12;5.0;;;4.5;;
38220;SDS011;24023;51.280;7.148;2022-08-18T18:25:07;5.0;;;4.5;;
38220;SDS011;24023;51.280;7.148;2022-08-18T18:30:18;5.2;;;4.7;;
38220;SDS011;24023;51.280;7.148;2022-08-18T18:35:08;5.2;;;4.7;;
38220;SDS011;24023;51.280;7.148;2022-08-18T18:40:17;5.2;;;4.7;;
38220;SDS011;24023;51.280;7.148;2022-08-18T18:45:18;7.2;;;4.7;;
38220;SDS011;24023;51.280;7.148;2022-08-18T18:50:09;7.2;;;4.7;;
38220;SDS011;24023;51.280;7.148;2022-08-18T18:55:07;7.2;;;4.7;;
38220;SDS011;24023;51.280;7.148;2022-08-18T19:00:15;5.1;;;4.7;;
38220;SDS011;24023;51.280;7.148;2022-08-18T19:05:10;5.1;;;4.7;;
38220;SDS011;24023;51.280;7.148;2022-08-18T19:10:08;5.4;;;4.9;;
38220;SDS011;24023;51.280;7.148;2022-08-18T19:15:10;5.4;;;4.9;;
38220;SDS011;24023;51.280;7.148;2022-08-18T19:20:09;5.3;;;4.8;;
38220;SDS011;24023;51.280;7.148;2022-08-18T19:25:09;5.3;;;4.8;;
38220;SDS011;24023;51.280;7.148;2022-08-18T19:30:10;5.3;;;4.8;;
38220;SDS011;24023;51.280;7.148;2022-08-18T19:35:10;5.9;;;5.1;;
38220;SDS011;24023;51.280;7.148;2022-08-18T19:40:10;5.9;;;5.1;;
38220;SDS011;24023;51.280;7.148;2022-08-18T19:45:10;5.2;;;4.7;;
38220;SDS011;24023;51.280;7.148;2022-08-18T19:50:11;5.2;;;4.7;;
38220;SDS011;24023;51.280;7.148;2022-08-18T19:55:10;5.2;;;4.7;;
38220;SDS011;24023;51.280;7.148;2022-08-18T20:00:14;5.3;;;4.8;;
38220;SDS011;24023;51.280;7.148;2022-08-18T20:05:09;5.3;;;4.8;;
38220;SDS011;24023;51.280;7.148;2022-08-18T20:10:15;5.7;;;5.2;;
38220;SDS011;24023;51.280;7.148;2022-08-18T20:15:12;5.7;;;5.2;;
38220;SDS011;24023;51.280;7.148;2022-08-18T20:20:12;5.7;;;5.2;;
38220;SDS011;24023;51.280;7.148;2022-08-18T20:25:08;5.1;;;4.7;;
38220;SDS011;24023;51.280;7.148;2022-08-18T20:30:22;5.1;;;4.7;;
38220;SDS011;24023;51.280;7.148;2022-08-18T20:35:15;5.6;;;5.0;;
38220;SDS011;24023;51.280;7.148;2022-08-18T20:40:08;5.6;;;5.0;;
38220;SDS011;24023;51.280;7.148;2022-08-18T20:45:11;5.5;;;4.9;;
38220;SDS011;24023;51.280;7.148;2022-08-18T20:50:55;5.5;;;4.9;;
38220;SDS011;24023;51.280;7.148;2022-08-18T20:55:10;5.5;;;4.9;;
38220;SDS011;24023;51.280;7.148;2022-08-18T21:00:14;4.8;;;4.4;;
38220;SDS011;24023;51.280;7.148;2022-08-18T21:05:09;4.8;;;4.4;;
38220;SDS011;24023;51.280;7.148;2022-08-18T21:10:20;4.8;;;4.3;;
38220;SDS011;24023;51.280;7.148;2022-08-18T21:15:09;4.8;;;4.3;;
38220;SDS011;24023;51.280;7.148;2022-08-18T21:20:09;4.8;;;4.3;;
38220;SDS011;24023;51.280;7.148;2022-08-18T21:25:07;4.7;;;4.3;;
38220;SDS011;24023;51.280;7.148;2022-08-18T21:30:13;4.7;;;4.3;;
38220;SDS011;24023;51.280;7.148;2022-08-18T21:35:17;5.1;;;4.6;;
38220;SDS011;24023;51.280;7.148;2022-08-18T21:40:08;5.1;;;4.6;;
38220;SDS011;24023;51.280;7.148;2022-08-18T21:45:12;5.1;;;4.6;;
38220;SDS011;24023;51.280;7.148;2022-08-18T21:50:09;6.1;;;4.5;;
38220;SDS011;24023;51.280;7.148;2022-08-18T21:55:16;6.1;;;4.5;;
38220;SDS011;24023;51.280;7.148;2022-08-18T22:00:17;5.2;;;4.5;;
38220;SDS011;24023;51.280;7.148;2022-08-18T22:05:08;5.2;;;4.5;;
38220;SDS011;24023;51.280;7.148;2022-08-18T22:15:08;4.9;;;4.4;;
38220;SDS011;24023;51.280;7.148;2022-08-18T22:21:28;4.9;;;4.4;;
38220;SDS011;24023;51.280;7.148;2022-08-18T22:25:06;5.1;;;4.0;;
38220;SDS011;24023;51.280;7.148;2022-08-18T22:30:09;5.1;;;4.0;;
38220;SDS011;24023;51.280;7.148;2022-08-18T22:35:07;4.1;;;3.7;;
38220;SDS011;24023;51.280;7.148;2022-08-18T22:40:10;4.1;;;3.7;;
38220;SDS011;24023;51.280;7.148;2022-08-18T22:45:12;4.1;;;3.7;;
38220;SDS011;24023;51.280;7.148;2022-08-18T22:50:08;4.0;;;3.5;;
38220;SDS011;24023;51.280;7.148;2022-08-18T22:55:08;4.0;;;3.5;;
38220;SDS011;24023;51.280;7.148;2022-08-18T23:00:12;4.3;;;3.9;;
38220;SDS011;24023;51.280;7.148;2022-08-18T23:05:06;4.3;;;3.9;;
38220;SDS011;24023;51.280;7.148;2022-08-18T23:10:08;4.3;;;3.9;;
38220;SDS011;24023;51.280;7.148;2022-08-18T23:15:09;4.0;;;3.6;;
38220;SDS011;24023;51.280;7.148;2022-08-18T23:20:10;4.0;;;3.6;;
38220;SDS011;24023;51.280;7.148;2022-08-18T23:25:07;4.3;;;3.9;;
38220;SDS011;24023;51.280;7.148;2022-08-18T23:30:10;4.3;;;3.9;;
38220;SDS011;24023;51.280;7.148;2022-08-18T23:35:06;4.3;;;3.9;;
38220;SDS011;24023;51.280;7.148;2022-08-18T23:40:10;4.3;;;3.7;;
38220;SDS011;24023;51.280;7.148;2022-08-18T23:45:09;4.3;;;3.7;;
38220;SDS011;24023;51.280;7.148;2022-08-18T23:50:08;5.2;;;3.9;;
38220;SDS011;24023;51.280;7.148;2022-08-18T23:55:07;5.2;;;3.9;;
